Time;durP1;ratioP1;P1;durP2;ratioP2;P2;SDS_P1;SDS_P2;PMS_P1;PMS_P2;Temp;Humidity;BMP_temperature;BMP_pressure;BME280_temperature;BME280_humidity;BME280_pressure;Samples;Min_cycle;Max_cycle;Signal;HPM_P1;HPM_P2
2023/07/05 00:00:07;;;;;;;2.90;1.73;;;15.70;99.90;;;;;;4942642;29;20235;-75
2023/07/05 00:02:35;;;;;;;2.33;1.87;;;15.70;99.90;;;;;;4941918;29;20678;-76
2023/07/05 00:05:03;;;;;;;3.70;2.10;;;15.70;99.90;;;;;;4938739;29;20211;-75
2023/07/05 00:07:31;;;;;;;3.07;2.17;;;15.70;99.90;;;;;;4937119;29;20212;-75
2023/07/05 00:10:00;;;;;;;4.10;2.20;;;15.60;99.90;;;;;;4938325;29;20260;-76
2023/07/05 00:12:29;;;;;;;3.00;1.97;;;15.60;99.90;;;;;;4941375;29;20291;-74
2023/07/05 00:14:57;;;;;;;2.37;1.93;;;15.50;99.90;;;;;;4941730;29;20223;-77
2023/07/05 00:17:26;;;;;;;2.40;2.20;;;15.50;99.90;;;;;;4940892;29;20271;-74
2023/07/05 00:19:54;;;;;;;3.30;2.00;;;15.50;99.90;;;;;;4941271;29;20251;-75
2023/07/05 00:22:22;;;;;;;3.47;2.27;;;15.40;99.90;;;;;;4941879;29;20274;-75
2023/07/05 00:24:53;;;;;;;2.60;2.10;;;15.40;99.90;;;;;;4942232;29;20255;-75
2023/07/05 00:27:21;;;;;;;3.67;2.03;;;15.40;99.90;;;;;;4941507;29;20718;-73
2023/07/05 00:29:53;;;;;;;3.43;2.33;;;15.30;99.90;;;;;;4940981;29;20287;-76
2023/07/05 00:32:21;;;;;;;2.63;2.10;;;15.20;99.90;;;;;;4940120;29;20216;-74
2023/07/05 00:34:49;;;;;;;4.50;2.33;;;15.20;99.90;;;;;;4940770;29;20216;-75
2023/07/05 00:37:17;;;;;;;4.83;2.23;;;15.20;99.90;;;;;;4940530;29;20219;-75
2023/07/05 00:39:46;;;;;;;2.70;2.27;;;15.20;99.90;;;;;;4939660;29;20289;-76
2023/07/05 00:42:14;;;;;;;3.93;2.53;;;15.20;99.90;;;;;;4939913;29;20247;-75
2023/07/05 00:44:42;;;;;;;3.40;2.40;;;15.10;99.90;;;;;;4936063;29;20215;-79
2023/07/05 00:47:24;;;;;;;3.87;2.50;;;15.00;99.90;;;;;;4942850;28;20210;-77
2023/07/05 00:49:52;;;;;;;4.40;2.23;;;15.00;99.90;;;;;;4974418;28;20195;-76
2023/07/05 00:52:21;;;;;;;3.97;2.23;;;14.90;99.90;;;;;;4973975;28;20599;-76
2023/07/05 00:54:52;;;;;;;3.30;2.23;;;14.90;99.90;;;;;;4974155;28;20269;-78
2023/07/05 00:57:24;;;;;;;5.43;2.37;;;14.80;99.90;;;;;;4974420;28;20214;-78
2023/07/05 00:59:55;;;;;;;3.40;2.10;;;14.80;99.90;;;;;;4974244;28;20306;-77
2023/07/05 01:02:25;;;;;;;2.80;2.20;;;14.80;99.90;;;;;;4974465;28;20215;-77
2023/07/05 01:04:53;;;;;;;4.80;2.60;;;14.70;99.90;;;;;;4970937;28;20207;-78
2023/07/05 01:07:21;;;;;;;3.03;2.30;;;14.70;99.90;;;;;;4936740;29;20212;-77
2023/07/05 01:09:50;;;;;;;3.37;2.30;;;14.60;99.90;;;;;;4936051;29;20250;-75
2023/07/05 01:12:24;;;;;;;3.97;2.60;;;14.60;99.90;;;;;;4938801;29;20242;-74
2023/07/05 01:14:59;;;;;;;6.30;2.53;;;14.60;99.90;;;;;;4937416;29;20208;-75
2023/07/05 01:17:38;;;;;;;4.00;2.40;;;14.60;99.90;;;;;;4937680;29;20220;-78
2023/07/05 01:20:24;;;;;;;4.70;2.30;;;14.50;99.90;;;;;;4936053;29;20228;-75
2023/07/05 01:23:25;;;;;;;3.43;2.30;;;14.50;99.90;;;;;;4936645;29;20239;-77
2023/07/05 01:26:20;;;;;;;3.23;2.50;;;14.40;99.90;;;;;;4929661;29;20634;-78
2023/07/05 01:29:22;;;;;;;6.73;2.70;;;14.40;99.90;;;;;;4938789;29;20314;-78
2023/07/05 01:31:58;;;;;;;4.50;2.70;;;14.30;99.90;;;;;;4932259;29;20216;-78
2023/07/05 01:34:38;;;;;;;4.73;2.90;;;14.30;99.90;;;;;;4938521;29;20275;-79
2023/07/05 01:37:08;;;;;;;4.40;2.70;;;14.30;99.90;;;;;;4937966;29;20283;-79
2023/07/05 01:39:36;;;;;;;4.83;2.97;;;14.30;99.90;;;;;;4938049;29;20232;-79
2023/07/05 01:42:06;;;;;;;4.87;2.63;;;14.40;99.90;;;;;;4937811;29;20212;-79
2023/07/05 01:44:34;;;;;;;3.47;2.50;;;14.30;99.90;;;;;;4937631;29;20756;-79
2023/07/05 01:47:10;;;;;;;3.17;2.53;;;14.30;99.90;;;;;;4965643;28;20237;-76
2023/07/05 01:49:53;;;;;;;4.83;3.00;;;14.30;99.90;;;;;;4964836;28;20204;-75
2023/07/05 01:52:29;;;;;;;4.27;2.93;;;14.30;99.90;;;;;;4937814;29;20220;-73
2023/07/05 01:55:05;;;;;;;4.40;2.90;;;14.40;99.90;;;;;;4937623;29;20220;-74
2023/07/05 01:57:37;;;;;;;4.17;2.87;;;14.50;99.90;;;;;;4937474;29;20235;-77
2023/07/05 02:00:08;;;;;;;4.03;2.63;;;14.60;99.90;;;;;;4937868;29;20314;-78
2023/07/05 02:02:42;;;;;;;3.27;2.37;;;14.60;99.90;;;;;;4937765;29;20197;-80
2023/07/05 02:05:11;;;;;;;2.93;2.60;;;14.70;99.90;;;;;;4937910;29;20235;-77
2023/07/05 02:07:40;;;;;;;3.63;2.83;;;14.70;99.90;;;;;;4937506;29;20271;-77
2023/07/05 02:10:08;;;;;;;3.37;2.50;;;14.70;99.90;;;;;;4937661;29;20240;-77
2023/07/05 02:12:36;;;;;;;2.77;2.50;;;14.60;99.90;;;;;;4937533;29;20216;-77
2023/07/05 02:15:05;;;;;;;3.73;2.27;;;14.60;99.90;;;;;;4937679;29;20208;-79
2023/07/05 02:17:33;;;;;;;4.50;2.73;;;14.50;99.90;;;;;;4936961;29;20259;-78
2023/07/05 02:20:03;;;;;;;4.10;2.70;;;14.50;99.90;;;;;;4937069;29;20263;-79
2023/07/05 02:22:31;;;;;;;2.83;2.47;;;14.50;99.90;;;;;;4936880;29;20216;-79
2023/07/05 02:25:00;;;;;;;4.00;2.60;;;14.40;99.90;;;;;;4937303;29;20227;-77
2023/07/05 02:27:28;;;;;;;5.03;2.57;;;14.40;99.90;;;;;;4936850;29;20220;-78
2023/07/05 02:29:57;;;;;;;3.50;2.53;;;14.30;99.90;;;;;;4937373;29;20220;-79
2023/07/05 02:32:25;;;;;;;4.27;2.50;;;14.30;99.90;;;;;;4936755;29;20265;-77
2023/07/05 02:34:53;;;;;;;2.33;2.10;;;14.30;99.90;;;;;;4935991;29;20212;-78
2023/07/05 02:37:23;;;;;;;3.43;2.47;;;14.30;99.90;;;;;;4937021;29;20251;-78
2023/07/05 02:39:54;;;;;;;3.33;2.50;;;14.30;99.90;;;;;;4937293;29;20308;-79
2023/07/05 02:42:22;;;;;;;3.30;2.47;;;14.20;99.90;;;;;;4937078;29;20217;-77
2023/07/05 02:44:51;;;;;;;6.70;2.80;;;14.30;99.90;;;;;;4952094;28;20261;-78
2023/07/05 02:47:19;;;;;;;6.13;2.77;;;14.20;99.90;;;;;;4975587;28;20219;-79
2023/07/05 02:49:48;;;;;;;4.90;2.50;;;14.20;99.90;;;;;;4975494;28;20237;-79
2023/07/05 02:52:16;;;;;;;5.27;2.70;;;14.20;99.90;;;;;;4975242;28;20235;-79
2023/07/05 02:54:46;;;;;;;4.23;2.70;;;14.20;99.90;;;;;;4975301;28;20661;-77
2023/07/05 02:57:14;;;;;;;5.00;2.70;;;14.20;99.90;;;;;;4975108;28;20740;-79
2023/07/05 02:59:42;;;;;;;5.23;2.83;;;14.10;99.90;;;;;;4975236;28;20551;-78
2023/07/05 03:02:10;;;;;;;3.80;2.80;;;14.10;99.90;;;;;;4974801;28;20242;-79
2023/07/05 03:04:39;;;;;;;2.67;2.33;;;14.00;99.90;;;;;;4936479;29;20219;-79
2023/07/05 03:07:07;;;;;;;3.87;2.57;;;14.00;99.90;;;;;;4936801;29;20212;-79
2023/07/05 03:09:35;;;;;;;5.23;2.53;;;14.00;99.90;;;;;;4936867;29;20247;-78
2023/07/05 03:12:05;;;;;;;3.57;2.60;;;14.00;99.90;;;;;;4935767;29;20570;-76
2023/07/05 03:14:33;;;;;;;4.70;2.70;;;13.90;99.90;;;;;;4936841;29;20204;-78
2023/07/05 03:17:01;;;;;;;5.63;2.70;;;13.90;99.90;;;;;;4936471;29;20251;-78
2023/07/05 03:19:29;;;;;;;5.53;2.63;;;13.90;99.90;;;;;;4936295;29;20283;-78
2023/07/05 03:21:57;;;;;;;5.07;2.60;;;14.00;99.90;;;;;;4936022;29;20297;-79
2023/07/05 03:24:26;;;;;;;4.90;2.70;;;14.00;99.90;;;;;;4935935;29;20212;-77
2023/07/05 03:26:54;;;;;;;4.03;2.77;;;14.00;99.90;;;;;;4936571;29;20333;-79
2023/07/05 03:29:23;;;;;;;4.10;2.63;;;14.00;99.90;;;;;;4936035;29;20216;-78
2023/07/05 03:31:51;;;;;;;5.50;2.60;;;14.10;99.90;;;;;;4935773;29;20204;-78
2023/07/05 03:34:19;;;;;;;5.27;2.53;;;14.10;99.90;;;;;;4935567;29;20701;-78
2023/07/05 03:36:47;;;;;;;8.13;3.07;;;14.10;99.90;;;;;;4936138;29;20312;-77
2023/07/05 03:39:16;;;;;;;3.50;2.50;;;14.10;99.90;;;;;;4935839;29;20212;-77
2023/07/05 03:41:44;;;;;;;6.33;2.80;;;14.10;99.90;;;;;;4936068;29;20224;-79
2023/07/05 03:44:12;;;;;;;5.63;2.70;;;14.10;99.90;;;;;;4963049;28;20298;-78
2023/07/05 03:46:42;;;;;;;4.73;2.50;;;14.10;99.90;;;;;;4947920;28;20737;-77
2023/07/05 03:49:11;;;;;;;3.67;2.70;;;14.10;99.90;;;;;;4935386;29;20212;-79
2023/07/05 03:51:39;;;;;;;4.00;2.30;;;14.10;99.90;;;;;;4935945;29;20251;-79
2023/07/05 03:54:07;;;;;;;5.30;2.70;;;14.10;99.90;;;;;;4934794;29;20255;-79
2023/07/05 03:56:36;;;;;;;6.33;2.77;;;14.20;99.90;;;;;;4935545;29;20211;-78
2023/07/05 03:59:04;;;;;;;3.73;2.43;;;14.20;99.90;;;;;;4935519;29;20216;-79
2023/07/05 04:01:33;;;;;;;6.83;2.60;;;14.20;99.90;;;;;;4935204;29;20268;-77
2023/07/05 04:04:03;;;;;;;6.17;2.73;;;14.20;99.90;;;;;;4935209;29;20315;-77
2023/07/05 04:06:33;;;;;;;4.20;2.70;;;14.20;99.90;;;;;;4935771;29;20215;-79
2023/07/05 04:09:02;;;;;;;4.73;2.40;;;14.20;99.90;;;;;;4935985;29;20289;-76
2023/07/05 04:11:31;;;;;;;3.50;2.70;;;14.30;99.90;;;;;;4935862;29;20203;-76
2023/07/05 04:13:59;;;;;;;4.47;2.37;;;14.30;99.90;;;;;;4935282;29;20215;-74
2023/07/05 04:16:27;;;;;;;4.80;2.50;;;14.40;99.90;;;;;;4935109;29;20216;-75
2023/07/05 04:18:57;;;;;;;4.13;2.30;;;14.50;99.90;;;;;;4935321;29;20240;-75
2023/07/05 04:21:28;;;;;;;4.93;2.33;;;14.50;99.90;;;;;;4935223;29;20232;-75
2023/07/05 04:23:56;;;;;;;3.57;2.47;;;14.50;99.90;;;;;;4934916;29;20217;-76
2023/07/05 04:26:27;;;;;;;4.83;2.67;;;14.60;99.90;;;;;;4935242;29;20283;-75
2023/07/05 04:28:55;;;;;;;3.57;2.13;;;14.70;99.90;;;;;;4934883;29;20220;-78
2023/07/05 04:31:27;;;;;;;5.17;2.50;;;14.60;99.90;;;;;;4934955;29;20208;-76
2023/07/05 04:33:56;;;;;;;5.87;2.30;;;14.70;99.90;;;;;;4935199;29;20550;-76
2023/07/05 04:36:25;;;;;;;3.93;2.50;;;14.70;99.90;;;;;;4935007;29;20236;-74
2023/07/05 04:38:58;;;;;;;4.73;2.50;;;14.70;99.90;;;;;;4935159;29;20706;-76
2023/07/05 04:41:27;;;;;;;4.70;2.60;;;14.70;99.90;;;;;;4941476;28;20285;-75
2023/07/05 04:43:55;;;;;;;3.50;2.27;;;14.70;99.90;;;;;;4973278;28;20692;-74
2023/07/05 04:46:24;;;;;;;4.03;2.30;;;14.70;99.90;;;;;;4962569;28;20238;-73
2023/07/05 04:48:52;;;;;;;2.83;2.13;;;14.70;99.90;;;;;;4954826;29;20219;-73
2023/07/05 04:51:20;;;;;;;6.57;2.43;;;14.80;99.90;;;;;;4954208;29;20219;-75
2023/07/05 04:53:48;;;;;;;3.73;2.30;;;14.80;99.90;;;;;;4953908;29;20207;-78
2023/07/05 04:56:18;;;;;;;3.63;2.33;;;14.90;99.90;;;;;;4953834;29;20211;-73
2023/07/05 04:58:48;;;;;;;5.77;2.50;;;15.00;99.90;;;;;;4956138;28;20212;-79
2023/07/05 05:01:18;;;;;;;5.47;2.43;;;15.00;99.90;;;;;;4958023;28;20258;-74
2023/07/05 05:03:47;;;;;;;6.77;2.60;;;15.10;99.90;;;;;;4949331;29;20342;-78
2023/07/05 05:06:15;;;;;;;5.93;2.40;;;15.20;99.90;;;;;;4939389;29;20212;-77
2023/07/05 05:08:43;;;;;;;5.17;2.63;;;15.30;99.90;;;;;;4938810;29;20216;-75
2023/07/05 05:11:11;;;;;;;4.07;2.27;;;15.40;99.90;;;;;;4938488;29;20690;-77
2023/07/05 05:13:41;;;;;;;3.90;2.20;;;15.50;99.90;;;;;;4938643;29;20212;-78
2023/07/05 05:16:09;;;;;;;4.03;2.17;;;15.70;99.90;;;;;;4938540;29;20216;-76
2023/07/05 05:18:38;;;;;;;2.37;2.10;;;15.70;99.90;;;;;;4939012;29;20706;-76
2023/07/05 05:21:06;;;;;;;3.60;2.33;;;15.80;99.90;;;;;;4938445;29;20219;-76
2023/07/05 05:23:35;;;;;;;4.13;2.27;;;15.80;99.90;;;;;;4938236;29;20216;-78
2023/07/05 05:26:04;;;;;;;3.17;2.10;;;16.00;99.90;;;;;;4938883;29;20216;-76
2023/07/05 05:28:32;;;;;;;3.93;2.10;;;16.10;99.90;;;;;;4938218;29;20223;-77
2023/07/05 05:31:06;;;;;;;3.73;1.90;;;16.30;99.90;;;;;;4938370;29;20220;-76
2023/07/05 05:33:35;;;;;;;2.70;2.10;;;16.60;99.90;;;;;;4938195;29;20350;-76
2023/07/05 05:36:04;;;;;;;4.63;2.20;;;16.90;99.90;;;;;;4938027;29;20232;-78
2023/07/05 05:38:32;;;;;;;3.87;2.10;;;17.10;99.90;;;;;;4938370;29;20218;-73
2023/07/05 05:41:04;;;;;;;4.43;2.20;;;17.30;99.90;;;;;;4958599;28;20669;-76
2023/07/05 05:43:32;;;;;;;5.03;2.10;;;17.60;99.90;;;;;;4976168;28;20282;-74
2023/07/05 05:46:01;;;;;;;3.60;2.13;;;17.80;99.90;;;;;;4976769;28;20235;-76
2023/07/05 05:48:31;;;;;;;5.97;2.20;;;17.90;99.90;;;;;;4963487;29;20246;-79
2023/07/05 05:50:59;;;;;;;4.07;2.40;;;17.80;99.90;;;;;;4957165;28;20361;-79
2023/07/05 05:53:27;;;;;;;5.07;2.27;;;17.70;99.90;;;;;;4956720;29;20694;-75
2023/07/05 05:55:57;;;;;;;3.83;2.30;;;17.70;99.90;;;;;;4938887;29;20328;-75
2023/07/05 05:58:25;;;;;;;7.60;5.70;;;17.90;99.90;;;;;;4937618;29;20216;-75
2023/07/05 06:00:55;;;;;;;3.67;2.37;;;18.00;99.90;;;;;;4937839;29;20622;-77
2023/07/05 06:03:23;;;;;;;5.70;2.57;;;18.10;99.90;;;;;;4937099;29;20267;-74
2023/07/05 06:05:54;;;;;;;6.17;2.30;;;18.40;99.90;;;;;;4938225;29;20219;-73
2023/07/05 06:08:23;;;;;;;4.10;2.10;;;18.80;99.90;;;;;;4937958;29;20220;-72
2023/07/05 06:10:56;;;;;;;2.77;2.00;;;19.20;99.90;;;;;;4937693;29;20266;-76
2023/07/05 06:13:25;;;;;;;3.33;2.07;;;19.70;99.90;;;;;;4937410;29;20260;-74
2023/07/05 06:15:56;;;;;;;2.63;1.93;;;20.50;99.90;;;;;;4951920;28;20215;-74
2023/07/05 06:18:40;;;;;;;2.03;1.60;;;20.80;99.90;;;;;;4956718;28;20262;-73
2023/07/05 06:21:11;;;;;;;3.50;1.80;;;20.30;99.90;;;;;;4956902;28;20208;-74
2023/07/05 06:23:39;;;;;;;3.37;1.90;;;20.30;99.90;;;;;;4956347;28;20231;-74
2023/07/05 06:26:07;;;;;;;2.37;1.70;;;20.10;99.90;;;;;;4956523;28;20670;-77
2023/07/05 06:28:35;;;;;;;2.60;1.70;;;20.10;99.90;;;;;;4943018;28;20208;-75
2023/07/05 06:31:07;;;;;;;3.33;1.60;;;20.20;99.90;;;;;;4937053;29;20765;-75
2023/07/05 06:33:35;;;;;;;3.00;1.60;;;20.10;99.90;;;;;;4936674;29;20250;-75
2023/07/05 06:36:05;;;;;;;5.27;1.80;;;20.20;99.90;;;;;;4937282;29;20246;-76
2023/07/05 06:38:35;;;;;;;2.77;1.80;;;20.20;99.90;;;;;;4941312;28;20655;-76
2023/07/05 06:41:04;;;;;;;4.40;1.50;;;20.40;99.90;;;;;;4976630;28;20215;-76
2023/07/05 06:43:32;;;;;;;3.70;1.60;;;20.70;99.90;;;;;;4975757;28;20763;-76
2023/07/05 06:46:00;;;;;;;3.10;1.57;;;21.10;99.90;;;;;;4973008;28;20214;-76
2023/07/05 06:48:29;;;;;;;5.00;1.50;;;21.80;99.90;;;;;;4937455;29;20222;-73
2023/07/05 06:50:59;;;;;;;2.37;1.10;;;22.40;99.90;;;;;;4936817;29;20212;-74
2023/07/05 06:53:28;;;;;;;2.50;1.40;;;22.90;99.90;;;;;;4936811;29;20220;-80
2023/07/05 06:56:17;;;;;;;2.10;1.50;;;22.70;99.90;;;;;;4936928;29;20218;-75
2023/07/05 06:58:45;;;;;;;2.43;1.50;;;22.20;99.90;;;;;;4937068;29;20291;-75
2023/07/05 07:01:13;;;;;;;1.70;1.17;;;21.70;99.90;;;;;;4937179;29;20279;-77
2023/07/05 07:03:42;;;;;;;2.33;1.30;;;21.20;99.90;;;;;;4936491;29;20255;-74
2023/07/05 07:06:11;;;;;;;3.50;1.30;;;20.90;99.90;;;;;;4936660;29;20223;-76
2023/07/05 07:08:39;;;;;;;2.90;1.30;;;20.60;99.90;;;;;;4937000;29;20208;-74
2023/07/05 07:11:10;;;;;;;2.00;1.57;;;20.10;99.90;;;;;;4936698;29;20247;-73
2023/07/05 07:13:40;;;;;;;4.27;1.67;;;20.10;99.90;;;;;;4936402;29;20212;-76
2023/07/05 07:16:10;;;;;;;1.47;1.33;;;20.00;99.90;;;;;;4936310;29;20208;-76
2023/07/05 07:18:39;;;;;;;3.00;1.27;;;19.80;99.90;;;;;;4936770;29;20244;-77
2023/07/05 07:21:08;;;;;;;1.43;1.27;;;19.90;99.90;;;;;;4936242;28;20311;-75
2023/07/05 07:23:37;;;;;;;2.13;1.40;;;19.90;99.90;;;;;;4935994;29;20224;-76
2023/07/05 07:26:07;;;;;;;3.00;1.43;;;20.00;99.90;;;;;;4936278;29;20279;-76
2023/07/05 07:28:36;;;;;;;2.90;1.40;;;19.90;99.90;;;;;;4936283;29;20208;-73
2023/07/05 07:31:17;;;;;;;2.27;1.50;;;19.80;99.90;;;;;;4935894;29;20558;-73
2023/07/05 07:33:46;;;;;;;2.43;1.57;;;19.70;99.90;;;;;;4935995;29;20208;-75
2023/07/05 07:36:17;;;;;;;3.10;1.70;;;19.60;99.90;;;;;;4935892;29;20232;-76
2023/07/05 07:38:45;;;;;;;3.37;1.73;;;19.30;99.90;;;;;;4966185;28;20354;-76
2023/07/05 07:41:15;;;;;;;4.97;1.80;;;19.30;99.90;;;;;;4974764;28;20211;-78
2023/07/05 07:43:43;;;;;;;2.67;1.50;;;19.20;99.90;;;;;;4973986;28;20263;-78
2023/07/05 07:46:13;;;;;;;5.67;1.80;;;19.10;99.90;;;;;;4974686;28;20346;-77
2023/07/05 07:48:46;;;;;;;4.20;1.80;;;19.10;99.90;;;;;;4974977;28;20214;-77
2023/07/05 07:51:14;;;;;;;5.17;1.70;;;19.30;99.90;;;;;;4974377;28;20617;-76
2023/07/05 07:54:02;;;;;;;2.53;1.97;;;19.40;99.90;;;;;;4973809;28;20217;-77
2023/07/05 07:56:31;;;;;;;2.97;1.87;;;19.60;99.90;;;;;;4974263;28;20253;-77
2023/07/05 07:58:59;;;;;;;3.07;1.70;;;19.80;99.90;;;;;;4954921;28;20231;-77
2023/07/05 08:01:30;;;;;;;5.10;1.90;;;20.00;99.90;;;;;;4935553;29;20208;-77
2023/07/05 08:04:03;;;;;;;2.73;1.77;;;20.20;99.90;;;;;;4935323;29;20606;-78
2023/07/05 08:06:34;;;;;;;2.97;1.53;;;20.30;99.90;;;;;;4935728;29;20208;-77
2023/07/05 08:09:04;;;;;;;1.70;1.60;;;20.20;99.90;;;;;;4935589;29;20255;-77
2023/07/05 08:11:32;;;;;;;4.20;1.83;;;20.30;99.90;;;;;;4935634;29;20599;-79
2023/07/05 08:14:00;;;;;;;3.63;1.60;;;20.40;99.90;;;;;;4935525;29;20263;-76
2023/07/05 08:16:29;;;;;;;2.37;1.73;;;20.60;99.90;;;;;;4935759;29;20552;-76
2023/07/05 08:18:59;;;;;;;2.17;1.57;;;20.90;99.90;;;;;;4935496;29;20219;-75
2023/07/05 08:21:27;;;;;;;2.10;1.70;;;21.00;99.90;;;;;;4935845;29;20259;-78
2023/07/05 08:23:55;;;;;;;2.80;1.77;;;21.30;99.90;;;;;;4935102;29;20259;-76
2023/07/05 08:26:23;;;;;;;2.67;1.80;;;21.90;99.90;;;;;;4935325;29;20216;-76
2023/07/05 08:28:51;;;;;;;2.70;1.57;;;22.20;99.90;;;;;;4935103;29;20224;-77
2023/07/05 08:31:19;;;;;;;1.87;1.60;;;22.60;99.90;;;;;;4935406;29;20617;-78
2023/07/05 08:33:47;;;;;;;2.10;1.40;;;22.50;99.90;;;;;;4933762;29;20208;-78
2023/07/05 08:36:28;;;;;;;2.40;1.50;;;22.60;99.90;;;;;;4948113;28;20649;-76
2023/07/05 08:38:57;;;;;;;2.77;1.57;;;22.60;99.90;;;;;;4973418;28;20673;-73
2023/07/05 08:41:34;;;;;;;2.80;1.80;;;22.60;99.90;;;;;;4956670;28;20223;-76
2023/07/05 08:44:16;;;;;;;1.93;1.73;;;22.50;99.90;;;;;;4934636;29;20251;-78
2023/07/05 08:46:48;;;;;;;3.60;1.77;;;22.40;99.90;;;;;;4934052;29;20263;-79
2023/07/05 08:49:23;;;;;;;3.73;2.00;;;22.70;99.90;;;;;;4935175;29;20204;-78
2023/07/05 08:51:53;;;;;;;3.83;2.10;;;22.90;99.90;;;;;;4933384;29;20270;-76
2023/07/05 08:54:21;;;;;;;3.33;2.00;;;24.00;99.90;;;;;;4934767;29;20271;-74
2023/07/05 08:57:03;;;;;;;2.57;2.00;;;24.50;99.90;;;;;;4934668;29;20208;-76
2023/07/05 08:59:41;;;;;;;5.03;2.20;;;24.90;99.80;;;;;;4934916;29;20216;-78
2023/07/05 09:02:11;;;;;;;2.83;1.93;;;26.10;98.50;;;;;;4934540;29;20212;-78
2023/07/05 09:04:39;;;;;;;5.72;1.95;;;27.50;94.20;;;;;;4934546;29;20228;-77
2023/07/05 09:07:16;;;;;;;4.47;1.98;;;27.60;92.80;;;;;;4934853;29;20212;-75
2023/07/05 09:10:04;;;;;;;3.45;2.22;;;28.10;89.10;;;;;;4934681;29;20298;-75
2023/07/05 09:12:40;;;;;;;3.53;2.20;;;27.80;89.30;;;;;;4934501;29;20267;-76
2023/07/05 09:15:14;;;;;;;3.67;2.10;;;27.50;91.40;;;;;;4934983;29;20251;-75
2023/07/05 09:17:50;;;;;;;2.65;2.15;;;27.10;90.50;;;;;;4934713;29;20208;-77
2023/07/05 09:20:38;;;;;;;3.28;2.17;;;26.60;91.00;;;;;;4934914;29;20253;-76
2023/07/05 09:23:13;;;;;;;3.17;2.33;;;26.00;90.40;;;;;;4934357;29;20220;-74
2023/07/05 09:25:45;;;;;;;5.03;2.50;;;25.60;90.60;;;;;;4934677;29;20270;-79
2023/07/05 09:28:25;;;;;;;3.57;2.50;;;25.10;91.20;;;;;;4934301;29;20763;-76
2023/07/05 09:30:53;;;;;;;4.07;2.40;;;25.00;92.10;;;;;;4934590;29;20219;-79
2023/07/05 09:33:28;;;;;;;2.87;2.23;;;25.20;92.50;;;;;;4934078;29;20213;-76
2023/07/05 09:35:59;;;;;;;4.10;2.30;;;25.20;93.00;;;;;;4938396;28;20581;-75
2023/07/05 09:38:32;;;;;;;3.33;2.43;;;25.20;92.50;;;;;;4934616;29;20301;-74
2023/07/05 09:41:04;;;;;;;3.37;2.33;;;25.60;92.30;;;;;;4934535;29;20216;-77
2023/07/05 09:43:34;;;;;;;3.37;2.47;;;26.20;91.60;;;;;;4934126;29;20246;-77
2023/07/05 09:46:06;;;;;;;2.83;2.10;;;26.80;88.60;;;;;;4938162;29;20394;-75
2023/07/05 09:48:43;;;;;;;2.67;2.30;;;26.80;78.90;;;;;;4938416;29;20279;-74
2023/07/05 09:51:12;;;;;;;4.20;2.17;;;26.10;81.40;;;;;;4938101;29;20670;-76
2023/07/05 09:53:46;;;;;;;2.70;2.37;;;26.30;83.20;;;;;;4937515;29;20224;-75
2023/07/05 09:56:16;;;;;;;3.63;2.50;;;27.20;83.50;;;;;;4938109;29;20291;-77
2023/07/05 09:58:45;;;;;;;3.63;2.30;;;28.80;75.40;;;;;;4937852;29;20239;-75
2023/07/05 10:01:18;;;;;;;4.03;2.00;;;29.90;68.20;;;;;;4937835;29;20295;-74
2023/07/05 10:03:52;;;;;;;2.58;2.08;;;31.20;64.50;;;;;;4937402;29;20208;-79
2023/07/05 10:06:24;;;;;;;3.70;2.08;;;32.00;56.50;;;;;;4937355;29;20716;-76
2023/07/05 10:08:55;;;;;;;3.03;2.28;;;32.80;54.70;;;;;;4937796;29;20208;-77
2023/07/05 10:11:26;;;;;;;2.97;2.20;;;33.00;52.70;;;;;;4937772;29;20196;-78
2023/07/05 10:14:03;;;;;;;2.58;2.15;;;32.20;50.50;;;;;;4936806;29;20228;-76
2023/07/05 10:16:51;;;;;;;3.17;2.10;;;32.80;52.20;;;;;;4937262;29;20218;-78
2023/07/05 10:19:25;;;;;;;4.05;2.20;;;33.40;45.80;;;;;;4937554;29;20230;-79
2023/07/05 10:22:06;;;;;;;2.30;2.05;;;33.00;44.70;;;;;;4936851;29;20247;-76
2023/07/05 10:24:42;;;;;;;2.58;2.20;;;32.70;47.20;;;;;;4936960;29;20222;-78
2023/07/05 10:27:22;;;;;;;3.85;2.22;;;32.60;45.40;;;;;;4937158;29;20670;-77
2023/07/05 10:29:51;;;;;;;3.08;2.50;;;32.80;45.70;;;;;;4937688;29;20204;-78
2023/07/05 10:32:22;;;;;;;3.78;2.40;;;32.90;45.50;;;;;;4937006;29;20216;-76
2023/07/05 10:34:51;;;;;;;3.58;2.40;;;32.80;44.80;;;;;;4944726;28;20216;-76
2023/07/05 10:37:38;;;;;;;3.13;2.17;;;32.30;46.40;;;;;;4937019;29;20213;-77
2023/07/05 10:40:09;;;;;;;4.13;2.55;;;31.60;48.30;;;;;;4936814;29;20267;-76
2023/07/05 10:42:40;;;;;;;4.03;2.10;;;30.90;48.60;;;;;;4936903;29;20303;-78
2023/07/05 10:45:13;;;;;;;4.60;2.53;;;30.80;50.50;;;;;;4937367;29;20655;-76
2023/07/05 10:47:42;;;;;;;4.22;2.60;;;30.00;52.60;;;;;;4936990;29;20694;-80
2023/07/05 10:50:13;;;;;;;4.22;2.45;;;29.10;52.80;;;;;;4936873;29;20337;-76
2023/07/05 10:52:49;;;;;;;3.42;2.30;;;28.30;55.50;;;;;;4936185;29;20303;-78
2023/07/05 10:55:22;;;;;;;4.72;2.67;;;28.00;57.50;;;;;;4935966;29;20235;-75
2023/07/05 10:57:54;;;;;;;3.95;2.45;;;27.50;59.10;;;;;;4936671;29;20299;-75
2023/07/05 11:00:29;;;;;;;3.70;2.80;;;27.20;60.30;;;;;;4936695;29;20295;-77
2023/07/05 11:03:10;;;;;;;4.27;2.50;;;26.80;62.60;;;;;;4936529;29;20216;-75
2023/07/05 11:05:43;;;;;;;5.27;2.70;;;26.30;66.50;;;;;;4937003;29;20634;-79
2023/07/05 11:08:17;;;;;;;4.73;2.67;;;25.90;68.20;;;;;;4936622;29;21717;-78
2023/07/05 11:10:49;;;;;;;7.07;2.90;;;25.70;68.50;;;;;;4937034;29;20207;-78
2023/07/05 11:13:18;;;;;;;4.27;2.57;;;25.50;70.30;;;;;;4936505;29;20288;-77
2023/07/05 11:15:47;;;;;;;5.70;2.50;;;25.30;73.90;;;;;;4936833;29;20264;-76
2023/07/05 11:18:18;;;;;;;5.23;2.50;;;25.20;74.60;;;;;;4936227;29;20271;-75
2023/07/05 11:20:49;;;;;;;3.37;2.70;;;24.90;77.00;;;;;;4936669;29;20215;-77
2023/07/05 11:23:53;;;;;;;5.40;2.80;;;24.30;78.80;;;;;;4936244;29;20717;-77
2023/07/05 11:26:47;;;;;;;10.20;2.73;;;23.60;82.50;;;;;;4936325;29;20298;-78
2023/07/05 11:29:51;;;;;;;5.30;3.20;;;23.20;90.30;;;;;;4931550;29;20216;-74
2023/07/05 11:32:21;;;;;;;9.10;3.20;;;22.60;95.20;;;;;;4953228;28;20215;-77
2023/07/05 11:34:54;;;;;;;5.23;3.23;;;22.00;99.90;;;;;;4975656;28;20231;-78
2023/07/05 11:37:46;;;;;;;6.17;3.07;;;21.50;99.90;;;;;;4975940;28;20246;-79
2023/07/05 11:41:04;;;;;;;4.77;3.10;;;21.10;99.90;;;;;;4975826;28;20207;-78
2023/07/05 11:43:40;;;;;;;5.90;3.00;;;20.90;99.90;;;;;;4974937;28;20367;-78
2023/07/05 11:46:38;;;;;;;5.80;3.10;;;20.80;99.90;;;;;;4974658;28;20585;-76
2023/07/05 11:49:43;;;;;;;5.07;3.13;;;20.80;99.90;;;;;;4974708;28;20727;-75
2023/07/05 11:52:15;;;;;;;5.63;3.23;;;20.80;99.90;;;;;;4950622;28;20260;-76
2023/07/05 11:54:53;;;;;;;5.80;3.17;;;21.00;99.90;;;;;;4974431;28;20223;-76
2023/07/05 11:57:22;;;;;;;8.97;3.50;;;21.30;99.90;;;;;;4974838;28;20215;-73
2023/07/05 12:00:00;;;;;;;4.63;2.70;;;21.60;99.90;;;;;;4959501;28;20212;-74
2023/07/05 12:02:39;;;;;;;3.73;2.03;;;22.00;99.90;;;;;;4935720;29;20302;-75
2023/07/05 12:05:12;;;;;;;2.07;1.87;;;22.00;99.90;;;;;;4935898;29;20576;-74
2023/07/05 12:07:42;;;;;;;1.90;1.60;;;21.90;99.90;;;;;;4935721;29;20219;-75
2023/07/05 12:10:20;;;;;;;3.70;1.50;;;21.70;99.90;;;;;;4935416;29;20212;-75
2023/07/05 12:12:49;;;;;;;2.83;1.60;;;21.60;99.90;;;;;;4935059;29;20647;-77
2023/07/05 12:15:18;;;;;;;3.80;1.50;;;21.60;99.90;;;;;;4935576;29;20232;-73
2023/07/05 12:17:47;;;;;;;3.10;1.60;;;21.50;99.90;;;;;;4935311;29;20283;-75
2023/07/05 12:20:28;;;;;;;3.57;1.60;;;21.30;99.90;;;;;;4935276;29;20212;-78
2023/07/05 12:22:57;;;;;;;2.53;1.50;;;21.20;99.90;;;;;;4935258;29;20215;-78
2023/07/05 12:25:26;;;;;;;1.80;1.50;;;21.20;99.90;;;;;;4935550;29;20308;-78
2023/07/05 12:27:55;;;;;;;2.00;1.70;;;21.00;99.90;;;;;;4935380;29;20216;-74
2023/07/05 12:30:25;;;;;;;2.90;1.70;;;21.10;99.90;;;;;;4944080;28;20279;-77
2023/07/05 12:32:55;;;;;;;2.27;1.80;;;21.00;99.90;;;;;;4973438;28;20673;-77
2023/07/05 12:35:25;;;;;;;4.33;1.90;;;21.10;99.90;;;;;;4973386;28;20245;-77
2023/07/05 12:37:55;;;;;;;3.47;1.63;;;21.20;99.90;;;;;;4950500;28;20223;-76
2023/07/05 12:40:27;;;;;;;3.03;1.67;;;21.30;99.90;;;;;;4935371;29;20610;-73
2023/07/05 12:42:59;;;;;;;3.77;1.97;;;21.20;99.90;;;;;;4935209;29;20224;-74
2023/07/05 12:45:32;;;;;;;3.03;1.97;;;21.30;99.90;;;;;;4935825;29;20272;-74
2023/07/05 12:48:14;;;;;;;2.47;1.73;;;21.30;99.90;;;;;;4935944;29;20238;-75
2023/07/05 12:50:43;;;;;;;2.43;1.83;;;21.20;99.90;;;;;;4935984;29;20208;-77
2023/07/05 12:53:17;;;;;;;1.73;1.63;;;21.20;99.90;;;;;;4935126;29;20211;-73
2023/07/05 12:55:55;;;;;;;3.53;1.67;;;21.20;99.90;;;;;;4935509;29;20232;-75
2023/07/05 12:58:26;;;;;;;4.07;1.80;;;21.50;99.90;;;;;;4935037;29;20248;-76
2023/07/05 13:00:57;;;;;;;2.10;1.90;;;21.80;99.90;;;;;;4935024;29;20215;-76
2023/07/05 13:03:28;;;;;;;3.13;1.90;;;22.00;99.90;;;;;;4934774;29;20243;-76
2023/07/05 13:05:56;;;;;;;6.60;2.00;;;22.20;99.90;;;;;;4934925;29;20316;-78
2023/07/05 13:08:28;;;;;;;4.80;1.93;;;22.20;99.90;;;;;;4934949;29;20422;-75
2023/07/05 13:10:57;;;;;;;5.80;1.90;;;22.20;99.90;;;;;;4934417;29;20222;-78